sensor_id;sensor_type;location;lat;lon;timestamp;pressure;altitude;pressure_sealevel;temperature;humidity
27685;BME280;46113;50.130;8.526;2024-02-26T00:01:54;97360.41;;;1.53;65.03
27685;BME280;46113;50.130;8.526;2024-02-26T00:04:21;97362.06;;;1.54;65.83
27685;BME280;46113;50.130;8.526;2024-02-26T00:06:48;97363.63;;;1.58;64.98
27685;BME280;46113;50.130;8.526;2024-02-26T00:09:18;97360.25;;;1.56;65.41
27685;BME280;46113;50.130;8.526;2024-02-26T00:11:44;97354.72;;;1.45;64.80
27685;BME280;46113;50.130;8.526;2024-02-26T00:14:11;97349.72;;;1.58;65.46
27685;BME280;46113;50.130;8.526;2024-02-26T00:16:41;97359.88;;;1.29;65.14
27685;BME280;46113;50.130;8.526;2024-02-26T00:19:08;97357.72;;;1.55;65.02
27685;BME280;46113;50.130;8.526;2024-02-26T00:21:35;97350.59;;;1.58;64.55
27685;BME280;46113;50.130;8.526;2024-02-26T00:24:01;97345.38;;;1.58;64.51
27685;BME280;46113;50.130;8.526;2024-02-26T00:26:28;97345.91;;;1.47;65.61
27685;BME280;46113;50.130;8.526;2024-02-26T00:28:55;97342.97;;;1.54;64.48
27685;BME280;46113;50.130;8.526;2024-02-26T00:31:21;97337.03;;;1.34;64.88
27685;BME280;46113;50.130;8.526;2024-02-26T00:33:48;97342.69;;;1.60;65.03
27685;BME280;46113;50.130;8.526;2024-02-26T00:36:15;97336.69;;;1.58;64.30
27685;BME280;46113;50.130;8.526;2024-02-26T00:38:42;97332.34;;;1.58;64.32
27685;BME280;46113;50.130;8.526;2024-02-26T00:41:11;97326.66;;;1.50;64.26
27685;BME280;46113;50.130;8.526;2024-02-26T00:43:38;97328.41;;;1.67;65.01
27685;BME280;46113;50.130;8.526;2024-02-26T00:46:06;97316.91;;;1.54;64.74
27685;BME280;46113;50.130;8.526;2024-02-26T00:48:33;97321.69;;;1.45;64.63
27685;BME280;46113;50.130;8.526;2024-02-26T00:51:00;97319.22;;;1.60;64.08
27685;BME280;46113;50.130;8.526;2024-02-26T00:53:26;97318.03;;;1.66;64.76
27685;BME280;46113;50.130;8.526;2024-02-26T00:55:55;97328.25;;;1.70;64.15
27685;BME280;46113;50.130;8.526;2024-02-26T00:58:22;97327.47;;;1.68;64.27
27685;BME280;46113;50.130;8.526;2024-02-26T01:00:49;97325.78;;;1.67;63.88
27685;BME280;46113;50.130;8.526;2024-02-26T01:03:15;97326.44;;;1.55;63.82
27685;BME280;46113;50.130;8.526;2024-02-26T01:05:42;97323.50;;;1.61;63.64
27685;BME280;46113;50.130;8.526;2024-02-26T01:08:09;97329.25;;;1.50;63.74
27685;BME280;46113;50.130;8.526;2024-02-26T01:10:36;97326.13;;;1.61;64.11
27685;BME280;46113;50.130;8.526;2024-02-26T01:13:02;97326.88;;;1.63;63.63
27685;BME280;46113;50.130;8.526;2024-02-26T01:15:29;97325.66;;;1.53;63.08
27685;BME280;46113;50.130;8.526;2024-02-26T01:17:56;97324.91;;;1.51;63.01
27685;BME280;46113;50.130;8.526;2024-02-26T01:20:22;97322.63;;;1.44;62.48
27685;BME280;46113;50.130;8.526;2024-02-26T01:22:49;97337.41;;;1.44;62.59
27685;BME280;46113;50.130;8.526;2024-02-26T01:25:16;97338.41;;;1.59;62.67
27685;BME280;46113;50.130;8.526;2024-02-26T01:27:43;97335.47;;;1.65;62.60
27685;BME280;46113;50.130;8.526;2024-02-26T01:30:10;97344.50;;;1.58;62.53
27685;BME280;46113;50.130;8.526;2024-02-26T01:32:37;97342.00;;;1.56;62.79
27685;BME280;46113;50.130;8.526;2024-02-26T01:35:04;97346.13;;;1.60;62.95
27685;BME280;46113;50.130;8.526;2024-02-26T01:37:33;97352.50;;;1.55;62.07
27685;BME280;46113;50.130;8.526;2024-02-26T01:40:00;97355.03;;;1.56;62.03
27685;BME280;46113;50.130;8.526;2024-02-26T01:42:30;97361.53;;;1.65;62.44
27685;BME280;46113;50.130;8.526;2024-02-26T01:45:00;97354.25;;;1.54;62.69
27685;BME280;46113;50.130;8.526;2024-02-26T01:47:28;97353.66;;;1.49;62.51
27685;BME280;46113;50.130;8.526;2024-02-26T01:49:55;97346.28;;;1.57;61.83
27685;BME280;46113;50.130;8.526;2024-02-26T01:52:22;97344.22;;;1.46;61.93
27685;BME280;46113;50.130;8.526;2024-02-26T01:54:49;97358.00;;;1.66;63.48
27685;BME280;46113;50.130;8.526;2024-02-26T01:57:16;97358.53;;;1.55;63.41
27685;BME280;46113;50.130;8.526;2024-02-26T01:59:44;97351.31;;;1.60;62.15
27685;BME280;46113;50.130;8.526;2024-02-26T02:02:11;97354.88;;;1.59;61.09
27685;BME280;46113;50.130;8.526;2024-02-26T02:04:39;97353.66;;;1.67;62.02
27685;BME280;46113;50.130;8.526;2024-02-26T02:07:06;97361.28;;;1.70;61.74
27685;BME280;46113;50.130;8.526;2024-02-26T02:09:33;97368.56;;;1.81;61.76
27685;BME280;46113;50.130;8.526;2024-02-26T02:12:00;97362.16;;;1.70;61.45
27685;BME280;46113;50.130;8.526;2024-02-26T02:14:27;97360.16;;;1.58;60.94
27685;BME280;46113;50.130;8.526;2024-02-26T02:16:54;97360.59;;;1.66;61.36
27685;BME280;46113;50.130;8.526;2024-02-26T02:19:20;97357.47;;;1.77;60.67
27685;BME280;46113;50.130;8.526;2024-02-26T02:21:47;97354.72;;;1.62;61.60
27685;BME280;46113;50.130;8.526;2024-02-26T02:24:14;97343.22;;;1.49;61.49
27685;BME280;46113;50.130;8.526;2024-02-26T02:26:41;97351.13;;;1.65;60.72
27685;BME280;46113;50.130;8.526;2024-02-26T02:29:08;97347.72;;;1.63;60.89
27685;BME280;46113;50.130;8.526;2024-02-26T02:31:36;97352.03;;;1.64;61.47
27685;BME280;46113;50.130;8.526;2024-02-26T02:34:03;97339.75;;;1.48;61.20
27685;BME280;46113;50.130;8.526;2024-02-26T02:36:30;97338.41;;;1.59;61.58
27685;BME280;46113;50.130;8.526;2024-02-26T02:38:57;97339.59;;;1.69;60.51
27685;BME280;46113;50.130;8.526;2024-02-26T02:41:23;97328.66;;;1.45;61.06
27685;BME280;46113;50.130;8.526;2024-02-26T02:43:50;97333.09;;;1.60;61.72
27685;BME280;46113;50.130;8.526;2024-02-26T02:46:17;97334.41;;;1.69;61.07
27685;BME280;46113;50.130;8.526;2024-02-26T02:48:44;97328.25;;;1.70;61.55
27685;BME280;46113;50.130;8.526;2024-02-26T02:51:11;97325.19;;;1.62;61.18
27685;BME280;46113;50.130;8.526;2024-02-26T02:53:38;97322.50;;;1.64;61.60
27685;BME280;46113;50.130;8.526;2024-02-26T02:56:05;97319.16;;;1.61;61.20
27685;BME280;46113;50.130;8.526;2024-02-26T02:58:31;97324.63;;;1.73;60.96
27685;BME280;46113;50.130;8.526;2024-02-26T03:00:58;97319.03;;;1.63;61.04
27685;BME280;46113;50.130;8.526;2024-02-26T03:03:27;97325.03;;;1.65;61.75
27685;BME280;46113;50.130;8.526;2024-02-26T03:05:55;97322.59;;;1.62;61.14
27685;BME280;46113;50.130;8.526;2024-02-26T03:08:22;97314.94;;;1.59;60.65
27685;BME280;46113;50.130;8.526;2024-02-26T03:10:48;97315.28;;;1.69;61.39
27685;BME280;46113;50.130;8.526;2024-02-26T03:13:15;97314.75;;;1.62;61.02
27685;BME280;46113;50.130;8.526;2024-02-26T03:15:42;97309.88;;;1.56;61.03
27685;BME280;46113;50.130;8.526;2024-02-26T03:18:09;97304.13;;;1.67;61.18
27685;BME280;46113;50.130;8.526;2024-02-26T03:20:36;97298.63;;;1.71;61.24
27685;BME280;46113;50.130;8.526;2024-02-26T03:23:03;97304.00;;;1.68;60.89
27685;BME280;46113;50.130;8.526;2024-02-26T03:25:30;97299.97;;;1.62;60.64
27685;BME280;46113;50.130;8.526;2024-02-26T03:27:57;97297.56;;;1.75;60.54
27685;BME280;46113;50.130;8.526;2024-02-26T03:30:23;97304.53;;;1.75;61.06
27685;BME280;46113;50.130;8.526;2024-02-26T03:32:50;97295.97;;;1.55;60.88
27685;BME280;46113;50.130;8.526;2024-02-26T03:35:17;97300.72;;;1.65;61.01
27685;BME280;46113;50.130;8.526;2024-02-26T03:37:46;97290.06;;;1.69;60.78
27685;BME280;46113;50.130;8.526;2024-02-26T03:40:14;97295.75;;;1.60;60.80
27685;BME280;46113;50.130;8.526;2024-02-26T03:42:41;97290.22;;;1.66;61.30
27685;BME280;46113;50.130;8.526;2024-02-26T03:45:08;97284.47;;;1.59;60.72
27685;BME280;46113;50.130;8.526;2024-02-26T03:47:37;97290.28;;;1.65;61.03
27685;BME280;46113;50.130;8.526;2024-02-26T03:50:06;97292.06;;;1.64;61.00
27685;BME280;46113;50.130;8.526;2024-02-26T03:52:33;97297.63;;;1.74;60.87
27685;BME280;46113;50.130;8.526;2024-02-26T03:55:00;97303.94;;;1.70;61.04
27685;BME280;46113;50.130;8.526;2024-02-26T03:57:27;97290.69;;;1.57;60.04
27685;BME280;46113;50.130;8.526;2024-02-26T03:59:53;97301.06;;;1.58;60.50
27685;BME280;46113;50.130;8.526;2024-02-26T04:02:20;97316.88;;;1.71;60.85
27685;BME280;46113;50.130;8.526;2024-02-26T04:04:49;97330.06;;;1.68;61.78
27685;BME280;46113;50.130;8.526;2024-02-26T04:07:16;97313.84;;;1.63;61.09
27685;BME280;46113;50.130;8.526;2024-02-26T04:09:43;97319.81;;;1.65;61.31
27685;BME280;46113;50.130;8.526;2024-02-26T04:12:10;97318.50;;;1.74;61.23
27685;BME280;46113;50.130;8.526;2024-02-26T04:14:37;97332.66;;;1.86;61.88
27685;BME280;46113;50.130;8.526;2024-02-26T04:17:04;97350.25;;;1.65;62.86
27685;BME280;46113;50.130;8.526;2024-02-26T04:19:31;97351.25;;;1.62;63.73
27685;BME280;46113;50.130;8.526;2024-02-26T04:21:59;97364.16;;;1.47;64.64
27685;BME280;46113;50.130;8.526;2024-02-26T04:24:26;97341.50;;;1.66;63.87
27685;BME280;46113;50.130;8.526;2024-02-26T04:26:52;97351.19;;;1.64;62.24
27685;BME280;46113;50.130;8.526;2024-02-26T04:29:19;97352.00;;;1.82;62.91
27685;BME280;46113;50.130;8.526;2024-02-26T04:31:46;97352.31;;;1.58;62.52
27685;BME280;46113;50.130;8.526;2024-02-26T04:34:13;97352.13;;;1.79;61.96
27685;BME280;46113;50.130;8.526;2024-02-26T04:36:40;97351.47;;;1.75;62.85
27685;BME280;46113;50.130;8.526;2024-02-26T04:39:07;97355.84;;;1.74;63.31
27685;BME280;46113;50.130;8.526;2024-02-26T04:41:34;97351.13;;;1.65;63.82
27685;BME280;46113;50.130;8.526;2024-02-26T04:44:01;97345.03;;;1.65;62.74
27685;BME280;46113;50.130;8.526;2024-02-26T04:46:28;97349.50;;;1.45;63.87
27685;BME280;46113;50.130;8.526;2024-02-26T04:48:55;97345.84;;;1.49;64.15
27685;BME280;46113;50.130;8.526;2024-02-26T04:51:24;97347.22;;;1.56;63.25
27685;BME280;46113;50.130;8.526;2024-02-26T04:53:50;97354.03;;;1.59;64.28
27685;BME280;46113;50.130;8.526;2024-02-26T04:56:17;97358.09;;;1.47;63.82
27685;BME280;46113;50.130;8.526;2024-02-26T04:58:44;97359.47;;;1.54;63.98
27685;BME280;46113;50.130;8.526;2024-02-26T05:01:11;97362.75;;;1.58;63.07
27685;BME280;46113;50.130;8.526;2024-02-26T05:03:38;97348.13;;;1.55;62.87
27685;BME280;46113;50.130;8.526;2024-02-26T05:06:05;97350.78;;;1.54;62.47
27685;BME280;46113;50.130;8.526;2024-02-26T05:08:32;97346.03;;;1.62;62.48
27685;BME280;46113;50.130;8.526;2024-02-26T05:11:00;97348.84;;;1.41;63.24
27685;BME280;46113;50.130;8.526;2024-02-26T05:13:27;97349.56;;;1.61;62.96
27685;BME280;46113;50.130;8.526;2024-02-26T05:15:54;97352.50;;;1.55;63.16
27685;BME280;46113;50.130;8.526;2024-02-26T05:18:22;97349.97;;;1.53;62.84
27685;BME280;46113;50.130;8.526;2024-02-26T05:20:49;97347.38;;;1.53;63.20
27685;BME280;46113;50.130;8.526;2024-02-26T05:23:16;97348.72;;;1.60;63.43
27685;BME280;46113;50.130;8.526;2024-02-26T05:25:42;97350.97;;;1.33;63.86
27685;BME280;46113;50.130;8.526;2024-02-26T05:28:11;97366.47;;;1.36;63.27
27685;BME280;46113;50.130;8.526;2024-02-26T05:30:38;97367.59;;;1.48;64.12
27685;BME280;46113;50.130;8.526;2024-02-26T05:33:06;97365.31;;;1.42;63.62
27685;BME280;46113;50.130;8.526;2024-02-26T05:35:33;97360.63;;;1.48;63.55
27685;BME280;46113;50.130;8.526;2024-02-26T05:38:00;97360.78;;;1.45;63.94
27685;BME280;46113;50.130;8.526;2024-02-26T05:40:26;97364.25;;;1.28;63.72
27685;BME280;46113;50.130;8.526;2024-02-26T05:42:53;97356.41;;;1.46;64.21
27685;BME280;46113;50.130;8.526;2024-02-26T05:45:20;97359.19;;;1.43;63.80
27685;BME280;46113;50.130;8.526;2024-02-26T05:47:46;97367.75;;;1.45;64.24
27685;BME280;46113;50.130;8.526;2024-02-26T05:50:13;97364.16;;;1.47;64.31
27685;BME280;46113;50.130;8.526;2024-02-26T05:52:42;97369.34;;;1.47;63.95
27685;BME280;46113;50.130;8.526;2024-02-26T05:55:09;97366.31;;;1.39;65.01
27685;BME280;46113;50.130;8.526;2024-02-26T05:57:36;97365.22;;;1.43;64.99
27685;BME280;46113;50.130;8.526;2024-02-26T06:00:03;97371.91;;;1.49;64.74
27685;BME280;46113;50.130;8.526;2024-02-26T06:02:39;97371.59;;;1.20;64.63
27685;BME280;46113;50.130;8.526;2024-02-26T06:05:07;97379.03;;;1.28;64.34
27685;BME280;46113;50.130;8.526;2024-02-26T06:07:35;97385.00;;;1.47;64.37
27685;BME280;46113;50.130;8.526;2024-02-26T06:10:02;97392.06;;;1.45;64.03
27685;BME280;46113;50.130;8.526;2024-02-26T06:12:31;97395.75;;;1.41;64.04
27685;BME280;46113;50.130;8.526;2024-02-26T06:14:58;97400.03;;;1.60;64.87
27685;BME280;46113;50.130;8.526;2024-02-26T06:17:27;97407.19;;;1.56;64.05
27685;BME280;46113;50.130;8.526;2024-02-26T06:19:54;97415.34;;;1.66;64.43
27685;BME280;46113;50.130;8.526;2024-02-26T06:22:21;97414.72;;;1.43;63.98
27685;BME280;46113;50.130;8.526;2024-02-26T06:24:48;97414.72;;;1.43;64.16
27685;BME280;46113;50.130;8.526;2024-02-26T06:27:14;97415.81;;;1.21;64.64
27685;BME280;46113;50.130;8.526;2024-02-26T06:29:41;97420.22;;;1.56;64.21
27685;BME280;46113;50.130;8.526;2024-02-26T06:32:08;97425.50;;;1.55;63.72
27685;BME280;46113;50.130;8.526;2024-02-26T06:34:35;97434.59;;;1.64;64.87
27685;BME280;46113;50.130;8.526;2024-02-26T06:37:10;97443.19;;;1.66;63.87
27685;BME280;46113;50.130;8.526;2024-02-26T06:39:37;97437.66;;;1.54;64.49
27685;BME280;46113;50.130;8.526;2024-02-26T06:42:05;97438.44;;;1.74;64.48
27685;BME280;46113;50.130;8.526;2024-02-26T06:44:33;97441.50;;;1.65;63.68
27685;BME280;46113;50.130;8.526;2024-02-26T06:47:00;97442.72;;;1.75;63.55
27685;BME280;46113;50.130;8.526;2024-02-26T06:49:28;97443.78;;;1.71;63.95
27685;BME280;46113;50.130;8.526;2024-02-26T06:51:55;97453.59;;;1.66;64.11
27685;BME280;46113;50.130;8.526;2024-02-26T06:54:29;97451.94;;;1.65;63.60
27685;BME280;46113;50.130;8.526;2024-02-26T06:56:56;97461.97;;;1.72;64.06
27685;BME280;46113;50.130;8.526;2024-02-26T06:59:23;97456.97;;;1.85;64.08
27685;BME280;46113;50.130;8.526;2024-02-26T07:01:50;97466.81;;;1.80;63.95
27685;BME280;46113;50.130;8.526;2024-02-26T07:04:17;97466.34;;;1.89;64.28
27685;BME280;46113;50.130;8.526;2024-02-26T07:06:44;97471.41;;;1.93;62.87
27685;BME280;46113;50.130;8.526;2024-02-26T07:09:13;97463.03;;;2.04;63.51
27685;BME280;46113;50.130;8.526;2024-02-26T07:11:40;97468.56;;;1.97;63.33
27685;BME280;46113;50.130;8.526;2024-02-26T07:14:11;97471.69;;;2.04;63.03
27685;BME280;46113;50.130;8.526;2024-02-26T07:16:38;97471.94;;;1.99;62.84
27685;BME280;46113;50.130;8.526;2024-02-26T07:19:05;97471.94;;;1.82;62.82
27685;BME280;46113;50.130;8.526;2024-02-26T07:21:31;97477.78;;;1.87;62.97
27685;BME280;46113;50.130;8.526;2024-02-26T07:23:58;97473.91;;;2.12;63.07
27685;BME280;46113;50.130;8.526;2024-02-26T07:26:25;97473.59;;;2.18;62.58
27685;BME280;46113;50.130;8.526;2024-02-26T07:28:52;97476.59;;;2.28;61.59
27685;BME280;46113;50.130;8.526;2024-02-26T07:31:19;97480.59;;;2.51;62.36
27685;BME280;46113;50.130;8.526;2024-02-26T07:33:46;97477.59;;;2.25;61.60
27685;BME280;46113;50.130;8.526;2024-02-26T07:36:13;97478.88;;;2.34;61.63
27685;BME280;46113;50.130;8.526;2024-02-26T07:38:40;97480.00;;;2.28;61.75
27685;BME280;46113;50.130;8.526;2024-02-26T07:41:09;97481.22;;;2.39;62.28
27685;BME280;46113;50.130;8.526;2024-02-26T07:43:36;97484.59;;;2.41;62.10
27685;BME280;46113;50.130;8.526;2024-02-26T07:46:03;97488.38;;;2.35;61.76
27685;BME280;46113;50.130;8.526;2024-02-26T07:48:30;97490.19;;;2.51;62.74
27685;BME280;46113;50.130;8.526;2024-02-26T07:50:57;97493.66;;;2.34;62.01
27685;BME280;46113;50.130;8.526;2024-02-26T07:53:26;97495.31;;;2.52;62.18
27685;BME280;46113;50.130;8.526;2024-02-26T07:55:52;97507.91;;;2.44;62.60
27685;BME280;46113;50.130;8.526;2024-02-26T07:58:19;97510.19;;;2.17;63.25
27685;BME280;46113;50.130;8.526;2024-02-26T08:00:46;97513.19;;;2.26;64.85
27685;BME280;46113;50.130;8.526;2024-02-26T08:03:13;97505.84;;;2.17;65.31
27685;BME280;46113;50.130;8.526;2024-02-26T08:05:42;97507.94;;;1.93;66.20
27685;BME280;46113;50.130;8.526;2024-02-26T08:08:10;97512.69;;;2.02;67.23
27685;BME280;46113;50.130;8.526;2024-02-26T08:10:36;97514.19;;;2.06;68.45
27685;BME280;46113;50.130;8.526;2024-02-26T08:13:03;97511.19;;;1.79;67.44
27685;BME280;46113;50.130;8.526;2024-02-26T08:15:33;97507.31;;;1.87;70.00
27685;BME280;46113;50.130;8.526;2024-02-26T08:18:09;97522.34;;;2.00;71.79
27685;BME280;46113;50.130;8.526;2024-02-26T08:20:36;97517.66;;;1.89;70.36
27685;BME280;46113;50.130;8.526;2024-02-26T08:23:04;97525.25;;;1.94;70.50
27685;BME280;46113;50.130;8.526;2024-02-26T08:25:30;97520.34;;;1.70;72.19
27685;BME280;46113;50.130;8.526;2024-02-26T08:27:58;97522.06;;;1.52;72.66
27685;BME280;46113;50.130;8.526;2024-02-26T08:30:25;97525.03;;;1.81;73.51
27685;BME280;46113;50.130;8.526;2024-02-26T08:32:52;97530.06;;;1.84;73.29
27685;BME280;46113;50.130;8.526;2024-02-26T08:35:19;97529.34;;;1.99;73.74
27685;BME280;46113;50.130;8.526;2024-02-26T08:37:47;97533.00;;;1.95;72.82
27685;BME280;46113;50.130;8.526;2024-02-26T08:40:14;97533.06;;;2.11;72.96
27685;BME280;46113;50.130;8.526;2024-02-26T08:42:41;97534.06;;;2.09;72.55
27685;BME280;46113;50.130;8.526;2024-02-26T08:45:08;97530.06;;;2.19;72.58
27685;BME280;46113;50.130;8.526;2024-02-26T08:47:35;97526.81;;;1.98;72.92
27685;BME280;46113;50.130;8.526;2024-02-26T08:50:03;97539.47;;;2.06;73.97
27685;BME280;46113;50.130;8.526;2024-02-26T08:52:30;97545.28;;;2.11;74.31
27685;BME280;46113;50.130;8.526;2024-02-26T08:54:57;97537.00;;;2.20;74.36
27685;BME280;46113;50.130;8.526;2024-02-26T08:57:24;97536.28;;;2.34;74.66
27685;BME280;46113;50.130;8.526;2024-02-26T08:59:54;97541.59;;;2.15;75.64
27685;BME280;46113;50.130;8.526;2024-02-26T09:02:21;97539.97;;;2.30;75.53
27685;BME280;46113;50.130;8.526;2024-02-26T09:04:47;97546.03;;;2.13;76.48
27685;BME280;46113;50.130;8.526;2024-02-26T09:07:14;97549.97;;;2.04;77.31
27685;BME280;46113;50.130;8.526;2024-02-26T09:09:41;97550.09;;;2.01;76.40
27685;BME280;46113;50.130;8.526;2024-02-26T09:12:08;97548.66;;;2.31;76.11
27685;BME280;46113;50.130;8.526;2024-02-26T09:14:35;97549.94;;;2.39;76.71
27685;BME280;46113;50.130;8.526;2024-02-26T09:17:02;97548.25;;;2.38;75.49
27685;BME280;46113;50.130;8.526;2024-02-26T09:19:28;97540.50;;;2.37;77.18
27685;BME280;46113;50.130;8.526;2024-02-26T09:21:55;97550.28;;;2.67;76.44
27685;BME280;46113;50.130;8.526;2024-02-26T09:24:24;97540.09;;;2.78;75.86
27685;BME280;46113;50.130;8.526;2024-02-26T09:26:52;97543.81;;;2.90;76.03
27685;BME280;46113;50.130;8.526;2024-02-26T09:29:18;97548.47;;;3.01;75.66
27685;BME280;46113;50.130;8.526;2024-02-26T09:31:45;97553.53;;;3.04;75.62
27685;BME280;46113;50.130;8.526;2024-02-26T09:34:14;97550.22;;;2.85;74.83
27685;BME280;46113;50.130;8.526;2024-02-26T09:36:41;97545.53;;;3.24;74.71
27685;BME280;46113;50.130;8.526;2024-02-26T09:39:08;97552.41;;;2.92;75.23
27685;BME280;46113;50.130;8.526;2024-02-26T09:41:38;97554.97;;;3.26;74.23
27685;BME280;46113;50.130;8.526;2024-02-26T09:44:05;97553.28;;;3.25;74.70
27685;BME280;46113;50.130;8.526;2024-02-26T09:46:33;97547.31;;;3.39;74.80
27685;BME280;46113;50.130;8.526;2024-02-26T09:49:00;97560.81;;;3.31;75.54
27685;BME280;46113;50.130;8.526;2024-02-26T09:51:27;97568.78;;;3.12;75.65
27685;BME280;46113;50.130;8.526;2024-02-26T09:53:59;97566.50;;;3.38;75.84
27685;BME280;46113;50.130;8.526;2024-02-26T09:56:29;97566.50;;;3.06;75.28
27685;BME280;46113;50.130;8.526;2024-02-26T09:58:57;97566.78;;;3.33;76.91
27685;BME280;46113;50.130;8.526;2024-02-26T10:01:24;97563.56;;;3.77;75.41
27685;BME280;46113;50.130;8.526;2024-02-26T10:03:55;97561.81;;;3.61;74.57
27685;BME280;46113;50.130;8.526;2024-02-26T10:06:25;97561.31;;;3.70;75.49
27685;BME280;46113;50.130;8.526;2024-02-26T10:08:53;97555.50;;;3.65;76.87
27685;BME280;46113;50.130;8.526;2024-02-26T10:11:21;97562.25;;;3.69;74.89
27685;BME280;46113;50.130;8.526;2024-02-26T10:13:49;97564.16;;;3.66;73.04
27685;BME280;46113;50.130;8.526;2024-02-26T10:16:16;97572.53;;;3.56;75.23
27685;BME280;46113;50.130;8.526;2024-02-26T10:18:51;97571.94;;;3.67;75.21
27685;BME280;46113;50.130;8.526;2024-02-26T10:21:25;97574.38;;;3.70;74.32
27685;BME280;46113;50.130;8.526;2024-02-26T10:23:53;97574.69;;;3.48;74.59
27685;BME280;46113;50.130;8.526;2024-02-26T10:26:20;97578.31;;;3.78;73.99
27685;BME280;46113;50.130;8.526;2024-02-26T10:28:49;97577.81;;;3.87;74.87
27685;BME280;46113;50.130;8.526;2024-02-26T10:31:21;97582.59;;;3.64;75.57
27685;BME280;46113;50.130;8.526;2024-02-26T10:33:48;97583.94;;;4.02;74.96
27685;BME280;46113;50.130;8.526;2024-02-26T10:36:16;97588.31;;;4.32;72.74
27685;BME280;46113;50.130;8.526;2024-02-26T10:38:43;97590.97;;;4.61;73.25
27685;BME280;46113;50.130;8.526;2024-02-26T10:41:14;97604.03;;;4.47;73.12
27685;BME280;46113;50.130;8.526;2024-02-26T10:43:42;97600.69;;;4.45;71.09
27685;BME280;46113;50.130;8.526;2024-02-26T10:46:10;97599.19;;;4.40;71.74
27685;BME280;46113;50.130;8.526;2024-02-26T10:48:36;97596.84;;;4.36;71.26
27685;BME280;46113;50.130;8.526;2024-02-26T10:51:04;97607.50;;;4.02;70.85
27685;BME280;46113;50.130;8.526;2024-02-26T10:53:31;97598.44;;;4.38;71.98
27685;BME280;46113;50.130;8.526;2024-02-26T10:56:04;97604.00;;;4.18;71.76
27685;BME280;46113;50.130;8.526;2024-02-26T10:58:32;97599.28;;;4.08;71.91
27685;BME280;46113;50.130;8.526;2024-02-26T11:00:59;97599.47;;;4.36;70.85
27685;BME280;46113;50.130;8.526;2024-02-26T11:03:28;97600.16;;;4.23;71.59
27685;BME280;46113;50.130;8.526;2024-02-26T11:05:58;97595.69;;;4.40;70.83
27685;BME280;46113;50.130;8.526;2024-02-26T11:08:27;97595.28;;;4.48;71.75
27685;BME280;46113;50.130;8.526;2024-02-26T11:10:55;97589.78;;;4.96;71.74
27685;BME280;46113;50.130;8.526;2024-02-26T11:13:24;97597.78;;;4.49;70.32
27685;BME280;46113;50.130;8.526;2024-02-26T11:15:55;97598.09;;;4.59;70.21
27685;BME280;46113;50.130;8.526;2024-02-26T11:18:26;97593.91;;;4.71;71.15
27685;BME280;46113;50.130;8.526;2024-02-26T11:20:54;97591.91;;;4.46;70.51
27685;BME280;46113;50.130;8.526;2024-02-26T11:23:24;97592.41;;;4.22;71.21
27685;BME280;46113;50.130;8.526;2024-02-26T11:25:56;97590.97;;;4.61;70.98
27685;BME280;46113;50.130;8.526;2024-02-26T11:28:27;97604.59;;;4.37;69.86
27685;BME280;46113;50.130;8.526;2024-02-26T11:30:55;97602.91;;;4.36;70.08
27685;BME280;46113;50.130;8.526;2024-02-26T11:33:21;97601.75;;;4.57;69.69
27685;BME280;46113;50.130;8.526;2024-02-26T11:35:48;97602.38;;;4.46;71.38
27685;BME280;46113;50.130;8.526;2024-02-26T11:38:20;97604.81;;;4.49;70.39
27685;BME280;46113;50.130;8.526;2024-02-26T11:40:52;97609.50;;;4.73;70.37
27685;BME280;46113;50.130;8.526;2024-02-26T11:43:23;97606.13;;;4.56;69.83
27685;BME280;46113;50.130;8.526;2024-02-26T11:46:28;97602.59;;;4.72;68.84
27685;BME280;46113;50.130;8.526;2024-02-26T11:49:01;97595.78;;;4.84;68.99
27685;BME280;46113;50.130;8.526;2024-02-26T11:51:33;97589.19;;;5.05;71.02
27685;BME280;46113;50.130;8.526;2024-02-26T11:54:01;97594.09;;;4.83;68.77
27685;BME280;46113;50.130;8.526;2024-02-26T11:56:28;97599.88;;;4.73;68.20
27685;BME280;46113;50.130;8.526;2024-02-26T11:59:01;97600.16;;;4.69;68.66
27685;BME280;46113;50.130;8.526;2024-02-26T12:04:05;97601.34;;;5.36;68.37
27685;BME280;46113;50.130;8.526;2024-02-26T12:06:41;97598.63;;;5.37;68.86
27685;BME280;46113;50.130;8.526;2024-02-26T12:09:08;97597.03;;;5.35;67.16
27685;BME280;46113;50.130;8.526;2024-02-26T12:11:39;97603.88;;;5.37;68.89
27685;BME280;46113;50.130;8.526;2024-02-26T12:14:09;97603.56;;;5.56;67.98
27685;BME280;46113;50.130;8.526;2024-02-26T12:16:40;97607.03;;;5.71;68.26
27685;BME280;46113;50.130;8.526;2024-02-26T12:19:11;97612.50;;;5.81;66.81
27685;BME280;46113;50.130;8.526;2024-02-26T12:21:39;97612.34;;;5.70;66.89
27685;BME280;46113;50.130;8.526;2024-02-26T12:24:14;97610.38;;;5.73;67.01
27685;BME280;46113;50.130;8.526;2024-02-26T12:26:42;97614.28;;;5.39;67.22
27685;BME280;46113;50.130;8.526;2024-02-26T12:29:08;97608.06;;;5.69;66.38
27685;BME280;46113;50.130;8.526;2024-02-26T12:31:36;97612.19;;;5.73;66.57
27685;BME280;46113;50.130;8.526;2024-02-26T12:34:04;97615.53;;;5.75;65.07
27685;BME280;46113;50.130;8.526;2024-02-26T12:36:33;97611.09;;;5.90;67.60
27685;BME280;46113;50.130;8.526;2024-02-26T12:39:04;97616.16;;;5.79;66.21
27685;BME280;46113;50.130;8.526;2024-02-26T12:41:37;97622.81;;;5.84;65.31
27685;BME280;46113;50.130;8.526;2024-02-26T12:44:04;97617.03;;;5.79;65.51
27685;BME280;46113;50.130;8.526;2024-02-26T12:46:31;97618.50;;;5.83;65.73
27685;BME280;46113;50.130;8.526;2024-02-26T12:48:58;97614.31;;;6.21;65.89
27685;BME280;46113;50.130;8.526;2024-02-26T12:51:26;97622.22;;;6.21;65.32
27685;BME280;46113;50.130;8.526;2024-02-26T12:53:55;97619.19;;;6.41;63.32
27685;BME280;46113;50.130;8.526;2024-02-26T12:56:22;97627.97;;;6.14;63.14
27685;BME280;46113;50.130;8.526;2024-02-26T12:58:50;97629.69;;;6.41;62.74
27685;BME280;46113;50.130;8.526;2024-02-26T13:01:21;97634.03;;;6.14;65.42
27685;BME280;46113;50.130;8.526;2024-02-26T13:03:51;97637.63;;;6.13;64.58
27685;BME280;46113;50.130;8.526;2024-02-26T13:06:19;97641.44;;;6.35;63.26
27685;BME280;46113;50.130;8.526;2024-02-26T13:08:46;97639.00;;;6.59;61.30
27685;BME280;46113;50.130;8.526;2024-02-26T13:11:14;97637.06;;;6.48;62.72
27685;BME280;46113;50.130;8.526;2024-02-26T13:13:41;97637.09;;;6.61;62.85
27685;BME280;46113;50.130;8.526;2024-02-26T13:16:13;97646.66;;;6.75;62.45